Terminal Aerodrome Forecast
Issued by NWS St Louis, MO

Home | Current Version | Previous Version | Graphics & Text | Print | Product List | Glossary On
Versions: 1 2 3 4 5 6 7 8 9 10 11 12 13 14 15 16 17 18 19 20 21 22 23
000
FTUS43 KLSX 181100
TAFSTL
TAF
KSTL 181129Z 1812/1918 VRB03KT 4SM BR FEW150 BKN250
     FM181500 13008KT P6SM SCT050 SCT150 BKN250
     FM190600 11006KT P6SM VCSH BKN050 OVC120
     FM190900 30008KT 5SM -SHRA VCTS BKN040CB OVC100=

USA.gov is the U.S. government's official web portal to all federal, state and local government web resources and services.